Time;durP1;ratioP1;P1;durP2;ratioP2;P2;SDS_P1;SDS_P2;PMS_P1;PMS_P2;Temp;Humidity;BMP_temperature;BMP_pressure;BME280_temperature;BME280_humidity;BME280_pressure;Samples;Min_cycle;Max_cycle;Signal;HPM_P1;HPM_P2
2021/09/10 00:02:21;;;;;;;29.90;15.90;;;;;;;11.07;98.31;100589.04;1753945;81;21057;-78
2021/09/10 00:04:48;;;;;;;25.37;15.10;;;;;;;11.02;98.27;100588.76;1753919;81;21562;-77
2021/09/10 00:07:14;;;;;;;30.15;15.28;;;;;;;11.02;98.51;100585.70;1753692;81;22177;-76
2021/09/10 00:09:40;;;;;;;27.17;15.40;;;;;;;11.02;98.66;100588.33;1753925;81;21108;-77
2021/09/10 00:12:08;;;;;;;25.52;15.72;;;;;;;11.02;98.82;100596.23;1753731;81;21162;-76
2021/09/10 00:14:34;;;;;;;27.40;15.20;;;;;;;11.01;98.86;100590.54;1754032;81;21519;-75
2021/09/10 00:17:03;;;;;;;28.60;16.35;;;;;;;11.00;98.95;100600.69;1753883;81;20997;-76
2021/09/10 00:19:29;;;;;;;25.75;14.10;;;;;;;10.97;98.99;100594.17;1754239;81;21016;-76
2021/09/10 00:21:56;;;;;;;27.60;15.70;;;;;;;10.96;99.01;100593.78;1753749;81;21378;-77
2021/09/10 00:24:22;;;;;;;30.30;14.07;;;;;;;10.93;99.06;100591.25;1726539;81;21040;-77
2021/09/10 00:26:49;;;;;;;26.20;14.70;;;;;;;10.90;99.12;100593.96;1753797;81;21547;-77
2021/09/10 00:29:16;;;;;;;32.33;16.73;;;;;;;10.88;99.07;100594.03;1777755;80;21155;-77
2021/09/10 00:31:43;;;;;;;26.45;15.05;;;;;;;10.86;99.09;100593.67;1784743;80;21095;-77
2021/09/10 00:34:09;;;;;;;29.90;15.68;;;;;;;10.84;99.14;100594.17;1785352;80;21016;-77
2021/09/10 00:36:37;;;;;;;23.18;14.65;;;;;;;10.81;99.22;100588.98;1784665;80;21039;-75
2021/09/10 00:39:04;;;;;;;25.35;15.60;;;;;;;10.76;99.31;100586.95;1785180;80;21095;-76
2021/09/10 00:41:30;;;;;;;31.33;15.30;;;;;;;10.74;99.39;100584.81;1784692;80;21076;-76
2021/09/10 00:43:58;;;;;;;22.50;14.05;;;;;;;10.71;99.54;100586.63;1784557;80;21149;-77
2021/09/10 00:46:26;;;;;;;27.58;16.05;;;;;;;10.69;99.64;100588.44;1784726;80;21049;-77
2021/09/10 00:48:53;;;;;;;25.25;14.85;;;;;;;10.66;99.73;100587.22;1783224;80;20989;-77
2021/09/10 00:51:21;;;;;;;22.42;14.10;;;;;;;10.65;99.86;100589.46;1742059;82;21077;-77
2021/09/10 00:53:48;;;;;;;34.05;15.72;;;;;;;10.65;99.96;100592.09;1716264;83;21425;-75
2021/09/10 00:56:16;;;;;;;22.73;15.63;;;;;;;10.63;100.00;100592.59;1779020;80;21592;-76
2021/09/10 00:58:44;;;;;;;25.40;16.70;;;;;;;10.60;100.00;100591.80;1778895;80;20995;-78
2021/09/10 01:01:11;;;;;;;32.83;16.35;;;;;;;10.58;100.00;100587.03;1778913;80;21539;-76
2021/09/10 01:03:38;;;;;;;25.37;14.85;;;;;;;10.55;100.00;100594.58;1748811;80;21001;-77
2021/09/10 01:06:05;;;;;;;31.02;15.80;;;;;;;10.52;100.00;100596.00;1778886;80;21885;-76
2021/09/10 01:08:31;;;;;;;23.52;13.60;;;;;;;10.50;100.00;100596.48;1779195;80;21095;-77
2021/09/10 01:10:59;;;;;;;30.52;16.40;;;;;;;10.47;100.00;100587.38;1778930;80;21053;-77
2021/09/10 01:13:27;;;;;;;37.03;16.50;;;;;;;10.46;100.00;100588.27;1779257;80;21092;-77
2021/09/10 01:15:55;;;;;;;26.35;14.90;;;;;;;10.45;100.00;100591.81;1779242;80;21531;-77
2021/09/10 01:18:21;;;;;;;26.82;16.73;;;;;;;10.44;100.00;100595.34;1779373;80;21656;-77
2021/09/10 01:20:50;;;;;;;26.65;16.57;;;;;;;10.43;100.00;100594.95;1778908;80;21013;-77
2021/09/10 01:23:17;;;;;;;20.68;14.25;;;;;;;10.41;100.00;100592.34;1779202;80;21060;-77
2021/09/10 01:25:43;;;;;;;29.15;16.70;;;;;;;10.38;100.00;100588.95;1781174;80;20955;-78
2021/09/10 01:28:10;;;;;;;22.65;13.40;;;;;;;10.37;100.00;100592.02;1784061;77;21418;-77
2021/09/10 01:30:37;;;;;;;29.80;16.37;;;;;;;10.36;100.00;100589.45;1783130;77;21499;-76
2021/09/10 01:33:07;;;;;;;27.45;17.25;;;;;;;10.36;100.00;100592.08;1780849;80;21021;-77
2021/09/10 01:35:35;;;;;;;24.52;14.20;;;;;;;10.35;100.00;100591.66;1778951;80;21013;-76
2021/09/10 01:38:02;;;;;;;29.10;16.93;;;;;;;10.33;100.00;100594.78;1778877;80;21042;-78
2021/09/10 01:40:29;;;;;;;23.47;14.03;;;;;;;10.31;100.00;100594.84;1778955;80;21029;-77
2021/09/10 01:42:56;;;;;;;28.17;17.20;;;;;;;10.29;100.00;100597.52;1741698;82;21902;-76
2021/09/10 01:45:22;;;;;;;31.90;17.75;;;;;;;10.27;100.00;100599.29;1715602;83;21035;-78
2021/09/10 01:47:49;;;;;;;29.32;17.23;;;;;;;10.26;100.00;100600.21;1778953;80;21002;-78
2021/09/10 01:50:18;;;;;;;27.07;17.20;;;;;;;10.22;100.00;100601.20;1748209;81;21056;-78
2021/09/10 01:52:44;;;;;;;29.70;17.98;;;;;;;10.20;100.00;100597.73;1731990;82;21060;-77
2021/09/10 01:55:14;;;;;;;26.35;15.85;;;;;;;10.16;100.00;100598.72;1753546;82;22201;-77
2021/09/10 01:57:44;;;;;;;29.25;18.20;;;;;;;10.12;100.00;100593.13;1754120;82;21101;-78
2021/09/10 02:00:11;;;;;;;26.27;16.77;;;;;;;10.12;100.00;100596.22;1754577;82;21053;-77
2021/09/10 02:02:38;;;;;;;29.25;17.35;;;;;;;10.10;100.00;100593.66;1750839;82;21541;-77
2021/09/10 02:05:06;;;;;;;29.92;18.42;;;;;;;10.10;100.00;100592.34;1750975;82;21221;-78
2021/09/10 02:07:32;;;;;;;32.58;18.37;;;;;;;10.09;100.00;100590.59;1750307;82;21145;-76
2021/09/10 02:10:00;;;;;;;35.65;18.57;;;;;;;10.07;100.00;100588.45;1750594;82;21030;-77
2021/09/10 02:12:27;;;;;;;29.00;18.20;;;;;;;10.07;100.00;100591.94;1750652;81;21050;-78
2021/09/10 02:14:54;;;;;;;33.20;17.25;;;;;;;10.04;100.00;100588.55;1750781;82;21062;-76
2021/09/10 02:17:21;;;;;;;35.50;18.52;;;;;;;10.01;100.00;100588.18;1750608;82;21030;-77
2021/09/10 02:19:47;;;;;;;26.80;15.88;;;;;;;10.00;100.00;100586.90;1751006;81;22133;-77
2021/09/10 02:22:14;;;;;;;30.00;18.82;;;;;;;9.99;100.00;100593.08;1750350;82;21077;-77
2021/09/10 02:24:42;;;;;;;28.57;17.75;;;;;;;9.98;100.00;100586.92;1750673;82;21545;-77
2021/09/10 02:27:09;;;;;;;29.20;15.93;;;;;;;9.98;100.00;100592.19;1750416;82;21121;-76
2021/09/10 02:29:37;;;;;;;33.65;19.23;;;;;;;9.98;100.00;100599.23;1750616;82;21093;-75
2021/09/10 02:32:05;;;;;;;21.40;14.18;;;;;;;9.97;100.00;100593.57;1750508;82;21161;-76
2021/09/10 02:34:31;;;;;;;33.25;19.25;;;;;;;9.95;100.00;100592.75;1750442;82;22104;-78
2021/09/10 02:36:58;;;;;;;34.65;19.57;;;;;;;9.95;100.00;100592.75;1750353;81;21565;-77
2021/09/10 02:39:25;;;;;;;31.05;17.37;;;;;;;9.94;100.00;100601.53;1750576;82;21556;-78
2021/09/10 02:41:51;;;;;;;33.70;19.30;;;;;;;9.90;100.00;100593.33;1750398;82;21053;-76
2021/09/10 02:44:18;;;;;;;27.05;17.40;;;;;;;9.87;100.00;100593.81;1750582;82;21148;-77
2021/09/10 02:46:44;;;;;;;27.90;17.37;;;;;;;9.84;100.00;100595.66;1750509;82;21734;-77
2021/09/10 02:49:11;;;;;;;29.77;18.25;;;;;;;9.82;100.00;100594.40;1747269;82;21060;-77
2021/09/10 02:51:38;;;;;;;22.58;14.80;;;;;;;9.81;100.00;100591.34;1723709;83;21109;-77
2021/09/10 02:54:07;;;;;;;35.25;19.48;;;;;;;9.81;100.00;100588.71;1723711;83;21093;-77
2021/09/10 02:56:34;;;;;;;30.27;17.05;;;;;;;9.81;100.00;100587.86;1752160;80;21634;-77
2021/09/10 02:59:02;;;;;;;28.15;16.05;;;;;;;9.80;100.00;100590.94;1747748;82;21028;-78
2021/09/10 03:04:06;;;;;;;26.07;15.55;;;;;;;9.82;100.00;100585.20;1855577;77;28195;-78
2021/09/10 03:06:32;;;;;;;29.67;19.30;;;;;;;9.76;100.00;100582.72;1825003;77;21049;-77
2021/09/10 03:09:00;;;;;;;32.93;18.57;;;;;;;9.76;100.00;100581.40;1825009;78;21044;-77
2021/09/10 03:11:27;;;;;;;34.15;17.98;;;;;;;9.75;100.00;100584.91;1825112;78;21531;-78
2021/09/10 03:13:53;;;;;;;28.65;18.75;;;;;;;9.73;100.00;100584.12;1825239;78;21044;-77
2021/09/10 03:16:20;;;;;;;28.55;18.82;;;;;;;9.72;100.00;100579.75;1825202;78;21037;-77
2021/09/10 03:18:48;;;;;;;29.30;19.37;;;;;;;9.66;100.00;100580.78;1825178;78;21008;-77
2021/09/10 03:21:14;;;;;;;35.52;19.02;;;;;;;9.70;100.00;100587.27;1825154;77;21175;-76
2021/09/10 03:23:40;;;;;;;25.92;16.65;;;;;;;9.67;100.00;100584.27;1825186;78;21009;-78
2021/09/10 03:26:07;;;;;;;29.50;18.73;;;;;;;9.66;100.00;100585.16;1825097;78;21010;-78
2021/09/10 03:28:34;;;;;;;30.27;16.65;;;;;;;9.68;100.00;100590.39;1824966;78;21567;-77
2021/09/10 03:31:00;;;;;;;32.35;19.70;;;;;;;9.67;100.00;100580.33;1825063;78;21009;-76
2021/09/10 03:33:27;;;;;;;34.45;19.62;;;;;;;9.67;100.00;100584.27;1825082;78;21487;-78
2021/09/10 03:35:55;;;;;;;29.40;17.37;;;;;;;9.64;100.00;100586.99;1824815;78;21053;-77
2021/09/10 03:38:21;;;;;;;31.57;19.02;;;;;;;9.62;100.00;100588.34;1825319;78;20990;-79
2021/09/10 03:40:48;;;;;;;35.28;19.95;;;;;;;9.64;100.00;100589.63;1825140;78;21092;-78
2021/09/10 03:43:14;;;;;;;30.27;15.78;;;;;;;9.64;100.00;100589.63;1825690;78;21033;-79
2021/09/10 03:45:40;;;;;;;34.03;19.98;;;;;;;9.64;100.00;100586.99;1826709;76;21112;-77
2021/09/10 03:48:07;;;;;;;44.45;18.17;;;;;;;9.67;100.00;100590.84;1829936;76;20982;-77
2021/09/10 03:50:37;;;;;;;35.70;20.27;;;;;;;9.68;100.00;100591.24;1828331;78;21049;-78
2021/09/10 03:53:03;;;;;;;28.05;18.45;;;;;;;9.70;100.00;100586.81;1827116;78;21045;-77
2021/09/10 03:55:30;;;;;;;28.17;16.97;;;;;;;9.74;100.00;100590.23;1825218;78;21064;-79
2021/09/10 03:57:58;;;;;;;33.60;20.05;;;;;;;9.77;100.00;100591.00;1824948;78;21931;-79
2021/09/10 04:00:25;;;;;;;30.95;18.23;;;;;;;9.84;100.00;100592.56;1825082;78;21044;-78
2021/09/10 04:02:51;;;;;;;30.37;19.32;;;;;;;10.04;100.00;100584.14;1826013;77;21005;-79
2021/09/10 04:05:20;;;;;;;36.77;19.62;;;;;;;10.46;100.00;100588.27;1828097;78;21005;-77
2021/09/10 04:07:49;;;;;;;33.63;19.70;;;;;;;10.91;100.00;100590.44;1828298;78;21017;-79
2021/09/10 04:10:17;;;;;;;41.40;18.98;;;;;;;11.37;100.00;100593.38;1828353;78;21033;-78
2021/09/10 04:12:44;;;;;;;39.63;18.92;;;;;;;11.84;100.00;100585.62;1828106;78;21021;-79
2021/09/10 04:15:10;;;;;;;46.85;17.92;;;;;;;12.30;98.38;100583.53;1828057;78;21583;-78
2021/09/10 04:17:37;;;;;;;39.85;19.23;;;;;;;12.76;96.03;100584.43;1828458;78;21029;-79
2021/09/10 04:20:07;;;;;;;46.98;19.02;;;;;;;13.23;94.12;100576.88;1828408;78;21030;-79
2021/09/10 04:22:33;;;;;;;37.38;18.82;;;;;;;13.71;92.18;100578.86;1829273;77;21142;-78
2021/09/10 04:25:00;;;;;;;34.23;17.73;;;;;;;14.18;89.42;100579.91;1829010;78;21543;-79
2021/09/10 04:27:26;;;;;;;29.90;17.12;;;;;;;14.62;87.25;100575.25;1829409;78;20997;-79
2021/09/10 04:29:53;;;;;;;34.98;17.15;;;;;;;15.06;84.84;100576.72;1828145;78;21060;-78
2021/09/10 04:32:20;;;;;;;34.35;16.73;;;;;;;15.50;82.27;100577.63;1827886;78;21063;-79
2021/09/10 04:34:48;;;;;;;28.70;16.87;;;;;;;15.94;80.28;100578.51;1827695;78;21502;-78
2021/09/10 04:37:16;;;;;;;34.40;17.32;;;;;;;16.34;77.97;100576.42;1827531;78;21034;-77
2021/09/10 04:39:42;;;;;;;26.25;16.45;;;;;;;16.76;75.96;100578.98;1827363;78;21053;-79
2021/09/10 04:42:09;;;;;;;28.30;17.05;;;;;;;17.12;73.57;100574.77;1827915;78;21084;-79
2021/09/10 04:44:36;;;;;;;27.32;16.10;;;;;;;17.45;73.00;100575.56;1827535;78;21048;-79
2021/09/10 04:47:04;;;;;;;26.97;15.20;;;;;;;17.87;71.00;100565.98;1827509;78;21886;-79
2021/09/10 04:49:31;;;;;;;28.52;16.65;;;;;;;18.30;69.06;100568.70;1827588;78;21025;-80
2021/09/10 04:51:57;;;;;;;36.93;16.55;;;;;;;18.72;67.35;100574.94;1827872;78;21127;-79
2021/09/10 04:54:25;;;;;;;26.45;15.68;;;;;;;19.14;66.02;100567.79;1827957;78;21531;-79
2021/09/10 04:56:52;;;;;;;28.38;15.23;;;;;;;19.57;63.76;100560.93;1796706;79;21084;-77
2021/09/10 04:59:18;;;;;;;24.80;15.28;;;;;;;19.96;61.67;100557.85;1795424;80;21216;-78
2021/09/10 05:01:47;;;;;;;27.35;16.75;;;;;;;20.29;59.90;100563.52;1794853;79;21492;-77
2021/09/10 05:04:14;;;;;;;24.32;15.00;;;;;;;20.49;58.93;100562.08;1794702;80;21060;-80
2021/09/10 05:06:40;;;;;;;22.75;14.95;;;;;;;20.48;58.91;100556.86;1795025;80;21087;-78
2021/09/10 05:09:08;;;;;;;25.25;15.35;;;;;;;20.74;58.51;100561.20;1794930;80;21056;-78
2021/09/10 05:11:34;;;;;;;31.62;15.38;;;;;;;21.10;57.63;100558.13;1794957;80;21702;-79
2021/09/10 05:14:04;;;;;;;25.60;15.05;;;;;;;21.57;56.50;100557.73;1794848;79;21626;-78
2021/09/10 05:16:33;;;;;;;24.30;13.68;;;;;;;22.04;55.32;100554.17;1794997;80;21068;-78
2021/09/10 05:19:00;;;;;;;31.20;14.15;;;;;;;22.49;53.88;100560.94;1795080;80;21080;-78
2021/09/10 05:21:26;;;;;;;24.63;14.47;;;;;;;22.92;52.72;100558.80;1795069;80;21092;-77
2021/09/10 05:23:54;;;;;;;22.95;13.55;;;;;;;23.32;51.20;100561.73;1794627;80;21144;-78
2021/09/10 05:26:21;;;;;;;29.72;14.53;;;;;;;23.69;50.70;100563.16;1794674;79;21048;-78
2021/09/10 05:28:48;;;;;;;26.60;14.10;;;;;;;24.05;49.87;100564.55;1794932;79;21044;-78
2021/09/10 05:31:14;;;;;;;29.12;14.53;;;;;;;24.41;48.81;100560.48;1794733;80;21033;-78
2021/09/10 05:33:41;;;;;;;26.30;13.43;;;;;;;24.81;47.24;100554.23;1794913;79;21057;-77
2021/09/10 05:36:08;;;;;;;31.07;14.78;;;;;;;25.18;45.89;100556.31;1794862;79;21911;-78
2021/09/10 05:38:35;;;;;;;22.90;14.58;;;;;;;25.60;44.91;100551.96;1794682;79;21037;-77
2021/09/10 05:41:02;;;;;;;33.92;14.55;;;;;;;26.02;43.83;100558.39;1795057;78;21044;-78
2021/09/10 05:43:28;;;;;;;32.25;13.98;;;;;;;26.37;42.89;100556.84;1794755;80;21107;-78
2021/09/10 05:45:55;;;;;;;33.92;15.05;;;;;;;26.66;41.86;100550.47;1795035;79;21079;-79
2021/09/10 05:48:22;;;;;;;38.88;14.75;;;;;;;26.93;41.07;100561.25;1794941;80;21186;-78
2021/09/10 05:50:50;;;;;;;37.95;14.07;;;;;;;26.99;40.85;100555.23;1795282;79;21536;-79
2021/09/10 05:53:17;;;;;;;28.50;12.65;;;;;;;27.15;40.52;100550.50;1794803;80;21060;-77
2021/09/10 05:55:45;;;;;;;27.22;13.05;;;;;;;27.36;39.90;100559.69;1812347;78;21521;-78
2021/09/10 05:58:12;;;;;;;22.67;11.53;;;;;;;27.60;39.54;100556.83;1827633;78;21275;-79
2021/09/10 06:00:40;;;;;;;18.73;11.22;;;;;;;28.02;39.04;100552.95;1827454;78;21041;-78
2021/09/10 06:03:06;;;;;;;25.60;12.50;;;;;;;28.47;37.86;100551.00;1827503;78;21076;-77
2021/09/10 06:05:34;;;;;;;23.25;12.80;;;;;;;28.79;36.88;100554.84;1829372;78;21037;-78
2021/09/10 06:08:01;;;;;;;33.70;11.85;;;;;;;29.02;36.02;100555.91;1831742;78;21021;-80
2021/09/10 06:10:29;;;;;;;24.07;12.03;;;;;;;29.22;35.44;100553.78;1830070;78;21065;-79
2021/09/10 06:12:57;;;;;;;21.73;10.80;;;;;;;29.33;34.93;100558.00;1828176;78;21013;-79
2021/09/10 06:15:24;;;;;;;22.42;10.75;;;;;;;29.42;34.33;100551.56;1827659;78;21080;-79
2021/09/10 06:17:50;;;;;;;25.55;11.20;;;;;;;29.65;33.70;100554.95;1827471;78;21155;-77
2021/09/10 06:20:17;;;;;;;19.10;10.72;;;;;;;29.91;33.58;100549.37;1827782;78;21012;-80
2021/09/10 06:22:47;;;;;;;16.25;10.60;;;;;;;30.21;33.15;100555.92;1827434;78;21072;-77
2021/09/10 06:25:14;;;;;;;21.77;11.38;;;;;;;30.38;32.01;100555.37;1827624;77;22160;-78
2021/09/10 06:27:42;;;;;;;18.32;10.65;;;;;;;30.20;32.44;100556.92;1827312;78;21049;-79
2021/09/10 06:30:09;;;;;;;20.10;10.88;;;;;;;30.24;32.09;100554.20;1827548;78;21048;-78
2021/09/10 06:32:37;;;;;;;18.27;10.70;;;;;;;30.39;31.87;100556.22;1827458;78;21033;-77
2021/09/10 06:35:05;;;;;;;21.20;10.43;;;;;;;30.42;31.79;100559.44;1827752;78;20998;-78
2021/09/10 06:37:32;;;;;;;18.50;10.38;;;;;;;30.56;31.81;100563.29;1828700;78;21771;-78
2021/09/10 06:39:59;;;;;;;18.12;9.35;;;;;;;30.68;31.56;100563.22;1830896;78;21025;-77
2021/09/10 06:42:25;;;;;;;16.93;9.88;;;;;;;30.79;31.26;100561.14;1831126;78;20989;-76
2021/09/10 06:44:54;;;;;;;18.23;9.95;;;;;;;31.06;30.78;100563.88;1830098;78;21009;-78
2021/09/10 06:47:21;;;;;;;18.27;9.83;;;;;;;31.39;30.32;100555.51;1827997;78;21496;-79
2021/09/10 06:49:47;;;;;;;24.27;9.78;;;;;;;31.65;29.98;100557.86;1827725;78;22129;-76
2021/09/10 06:52:14;;;;;;;21.82;10.00;;;;;;;31.71;29.46;100559.85;1827703;78;21057;-79
2021/09/10 06:54:41;;;;;;;18.00;9.60;;;;;;;31.74;29.57;100559.47;1831138;77;21583;-78
2021/09/10 06:57:09;;;;;;;15.35;9.18;;;;;;;31.89;29.11;100560.36;1862326;77;21033;-78
2021/09/10 06:59:35;;;;;;;20.02;9.55;;;;;;;32.21;28.65;100554.27;1861974;77;21089;-77
2021/09/10 07:02:02;;;;;;;17.60;9.63;;;;;;;32.39;28.13;100558.81;1863075;77;21455;-77
2021/09/10 07:04:30;;;;;;;16.70;8.30;;;;;;;32.46;28.07;100562.96;1860167;77;20977;-79
2021/09/10 07:06:58;;;;;;;12.78;7.92;;;;;;;32.63;27.71;100565.02;1858525;77;21028;-78
2021/09/10 07:09:25;;;;;;;17.27;9.23;;;;;;;33.01;27.21;100562.95;1858552;77;21025;-78
2021/09/10 07:11:53;;;;;;;13.90;8.80;;;;;;;33.22;26.86;100566.24;1859751;77;21045;-76
2021/09/10 07:14:42;;;;;;;12.30;7.92;;;;;;;33.36;26.69;100566.34;1858499;77;22112;-79
2021/09/10 07:17:11;;;;;;;12.50;8.00;;;;;;;33.28;26.15;100569.23;1774967;77;21500;-79
2021/09/10 07:19:38;;;;;;;17.65;8.60;;;;;;;33.33;26.65;100562.66;1820135;78;21033;-75
2021/09/10 07:22:05;;;;;;;17.40;8.20;;;;;;;33.46;26.42;100562.78;1824256;78;21002;-78
2021/09/10 07:24:32;;;;;;;17.32;8.43;;;;;;;33.59;26.18;100562.94;1794679;78;21131;-77
2021/09/10 07:26:59;;;;;;;16.48;7.67;;;;;;;33.63;26.17;100568.30;1824449;78;21672;-78
2021/09/10 07:29:26;;;;;;;12.75;7.40;;;;;;;33.77;25.15;100567.05;1824055;78;21089;-76
2021/09/10 07:31:54;;;;;;;11.15;7.30;;;;;;;33.95;25.06;100567.92;1824106;78;21473;-79
2021/09/10 07:34:21;;;;;;;16.97;8.43;;;;;;;34.06;24.51;100569.58;1823993;78;20997;-78
2021/09/10 07:36:52;;;;;;;9.63;6.80;;;;;;;34.28;24.64;100561.35;1824515;78;21596;-77
2021/09/10 07:39:21;;;;;;;9.20;6.87;;;;;;;34.59;23.98;100562.75;1823858;78;21120;-78
2021/09/10 07:41:48;;;;;;;;;;;;;;;34.74;23.38;100566.22;1826949;78;21130;-79
2021/09/10 07:44:16;;;;;;;12.68;7.35;;;;;;;34.83;23.78;100559.52;1824186;78;20502;-77
2021/09/10 07:46:45;;;;;;;11.30;6.95;;;;;;;34.93;23.45;100567.33;1824113;78;21053;-79
2021/09/10 07:49:12;;;;;;;10.43;7.05;;;;;;;35.09;22.94;100566.11;1824388;78;21407;-78
2021/09/10 07:51:38;;;;;;;13.48;7.20;;;;;;;35.22;22.49;100570.78;1824440;78;21068;-79
2021/09/10 07:54:05;;;;;;;9.98;6.72;;;;;;;35.21;22.25;100567.20;1824191;78;21093;-78
2021/09/10 07:56:33;;;;;;;14.25;7.28;;;;;;;35.10;22.80;100565.04;1795982;78;21037;-76
2021/09/10 07:59:00;;;;;;;13.03;7.25;;;;;;;35.25;22.65;100565.74;1791573;80;21056;-80
2021/09/10 08:01:26;;;;;;;12.63;6.97;;;;;;;35.19;22.25;100562.46;1791856;80;21029;-79
2021/09/10 08:03:53;;;;;;;12.35;6.95;;;;;;;35.01;22.89;100555.34;1784654;79;21123;-77
2021/09/10 08:06:19;;;;;;;9.90;6.35;;;;;;;35.14;22.17;100554.03;1762222;81;21060;-77
2021/09/10 08:08:49;;;;;;;13.10;6.33;;;;;;;35.49;21.84;100554.69;1761672;81;20992;-78
2021/09/10 08:11:16;;;;;;;10.32;6.12;;;;;;;35.85;21.26;100556.73;1762082;81;21047;-78
2021/09/10 08:13:44;;;;;;;10.10;5.37;;;;;;;36.25;21.21;100548.44;1761902;81;21535;-76
2021/09/10 08:16:14;;;;;;;7.87;6.35;;;;;;;36.47;20.08;100542.98;1761781;81;21970;-76
2021/09/10 08:18:40;;;;;;;11.67;6.30;;;;;;;36.35;20.15;100546.07;1762038;81;21080;-76
2021/09/10 08:21:07;;;;;;;11.63;5.60;;;;;;;36.18;20.76;100544.88;1763371;81;20981;-76
2021/09/10 08:23:34;;;;;;;12.10;5.92;;;;;;;36.11;19.78;100548.47;1763661;81;21563;-77
2021/09/10 08:26:01;;;;;;;11.68;6.33;;;;;;;36.18;19.62;100546.25;1765484;81;21067;-78
2021/09/10 08:28:29;;;;;;;10.38;6.05;;;;;;;36.06;20.10;100538.66;1762713;81;21000;-77
2021/09/10 08:30:55;;;;;;;10.80;6.03;;;;;;;35.73;20.23;100543.34;1762687;81;21028;-78
2021/09/10 08:33:21;;;;;;;9.85;5.90;;;;;;;35.77;20.57;100544.61;1761742;81;20981;-77
2021/09/10 08:35:48;;;;;;;11.33;4.85;;;;;;;35.96;19.96;100542.37;1762220;81;21024;-76
2021/09/10 08:38:14;;;;;;;8.50;5.42;;;;;;;36.05;19.00;100540.23;1761752;81;21044;-77
2021/09/10 08:40:41;;;;;;;12.53;6.10;;;;;;;36.12;19.66;100535.09;1762056;81;21278;-77
2021/09/10 08:43:08;;;;;;;9.28;5.60;;;;;;;36.19;19.58;100532.84;1761610;81;21036;-75
2021/09/10 08:45:35;;;;;;;9.78;5.72;;;;;;;36.11;19.61;100534.77;1762309;81;21056;-77
2021/09/10 08:48:03;;;;;;;9.05;5.78;;;;;;;36.06;19.93;100530.43;1762301;81;21028;-77
2021/09/10 08:50:30;;;;;;;10.48;5.72;;;;;;;36.10;20.03;100526.24;1763441;81;21028;-76
2021/09/10 08:52:57;;;;;;;13.20;5.80;;;;;;;36.17;19.14;100517.13;1763255;81;21156;-77
2021/09/10 08:55:23;;;;;;;10.30;5.00;;;;;;;36.13;19.50;100524.43;1762748;81;21083;-78
2021/09/10 08:57:52;;;;;;;14.15;5.60;;;;;;;36.22;18.63;100517.35;1761787;81;21039;-77
2021/09/10 09:00:30;;;;;;;13.72;5.12;;;;;;;36.08;18.85;100515.98;1761885;81;21067;-77
2021/09/10 09:03:06;;;;;;;7.53;5.03;;;;;;;36.13;18.65;100513.47;1761251;81;21048;-76
2021/09/10 09:05:33;;;;;;;9.18;5.37;;;;;;;36.05;18.33;100512.31;1785257;79;21635;-77
2021/09/10 09:08:14;;;;;;;10.68;5.03;;;;;;;35.67;18.38;100513.54;1791568;80;21080;-78
2021/09/10 09:11:07;;;;;;;10.28;5.33;;;;;;;34.89;18.93;100511.33;1792360;80;21500;-78
2021/09/10 09:13:44;;;;;;;8.43;5.08;;;;;;;34.73;19.16;100509.81;1791623;80;21087;-77
2021/09/10 09:16:30;;;;;;;9.85;4.83;;;;;;;34.85;19.13;100508.14;1792123;80;21060;-78
2021/09/10 09:19:05;;;;;;;12.23;4.85;;;;;;;34.98;19.21;100506.51;1791961;80;21147;-77
2021/09/10 09:21:35;;;;;;;8.65;5.30;;;;;;;35.07;19.45;100505.26;1791883;80;21067;-76
2021/09/10 09:24:20;;;;;;;9.43;4.70;;;;;;;35.14;19.45;100496.55;1792016;80;21092;-78
2021/09/10 09:26:51;;;;;;;9.38;5.20;;;;;;;35.29;19.31;100497.20;1792098;80;21049;-76
2021/09/10 09:29:20;;;;;;;9.55;5.47;;;;;;;35.45;18.78;100502.79;1791745;80;21014;-76
2021/09/10 09:31:58;;;;;;;7.95;5.08;;;;;;;35.30;18.99;100497.51;1791670;80;21096;-78
2021/09/10 09:34:48;;;;;;;8.53;5.03;;;;;;;35.02;19.09;100499.57;1791635;80;21786;-78
2021/09/10 09:37:16;;;;;;;;;;;;;;;34.50;19.84;100501.08;1794710;80;21064;-77
2021/09/10 09:40:01;;;;;;;7.83;4.70;;;;;;;34.21;19.62;100497.58;1791559;80;20562;-77
2021/09/10 09:42:33;;;;;;;12.35;5.28;;;;;;;34.19;20.21;100496.97;1792191;80;21056;-76
2021/09/10 09:45:13;;;;;;;11.55;5.85;;;;;;;34.35;19.84;100489.78;1792008;80;21559;-78
2021/09/10 09:47:37;;;;;;;8.98;4.80;;;;;;;34.29;20.16;100486.48;1790820;80;21099;-76
2021/09/10 09:50:13;;;;;;;12.40;5.72;;;;;;;34.35;20.27;100482.95;1791934;80;21012;-76
2021/09/10 09:52:39;;;;;;;8.13;5.20;;;;;;;34.65;19.99;100479.39;1791795;80;21563;-77
2021/09/10 09:55:09;;;;;;;7.55;5.17;;;;;;;34.60;19.35;100485.98;1792562;78;21015;-79
2021/09/10 09:57:36;;;;;;;10.80;5.72;;;;;;;34.31;19.68;100484.40;1795007;80;21108;-78
2021/09/10 10:00:04;;;;;;;10.25;5.78;;;;;;;34.23;19.48;100482.69;1794337;79;21054;-77
2021/09/10 10:02:32;;;;;;;10.20;4.35;;;;;;;33.88;19.81;100477.73;1794570;80;21039;-76
2021/09/10 10:04:59;;;;;;;9.95;4.70;;;;;;;33.25;20.57;100483.66;1768626;80;21058;-76
2021/09/10 10:07:29;;;;;;;9.05;5.35;;;;;;;33.07;21.07;100480.03;1773639;80;21054;-76
2021/09/10 10:09:57;;;;;;;11.30;4.90;;;;;;;32.98;21.06;100488.83;1773358;79;21148;-76
2021/09/10 10:12:26;;;;;;;14.50;5.72;;;;;;;33.19;20.86;100483.91;1773217;79;21085;-77
2021/09/10 10:14:52;;;;;;;11.08;5.60;;;;;;;33.48;20.62;100480.70;1773358;80;21605;-77
2021/09/10 10:17:34;;;;;;;11.85;5.33;;;;;;;33.62;19.79;100475.16;1773896;80;21055;-76
2021/09/10 10:20:01;;;;;;;8.90;5.35;;;;;;;33.56;19.88;100480.53;1773586;79;21565;-77
2021/09/10 10:22:40;;;;;;;8.93;5.30;;;;;;;33.26;20.06;100479.88;1773995;80;21030;-77
2021/09/10 10:25:09;;;;;;;11.15;5.35;;;;;;;32.73;20.84;100475.55;1773652;80;21053;-77
2021/09/10 10:27:43;;;;;;;7.92;5.40;;;;;;;32.79;21.34;100474.80;1773645;80;21465;-77
2021/09/10 10:30:21;;;;;;;10.03;6.12;;;;;;;33.10;21.30;100470.91;1773339;80;21549;-76
2021/09/10 10:32:50;;;;;;;19.73;6.65;;;;;;;33.23;20.30;100460.13;1773695;80;21086;-76
2021/09/10 10:35:40;;;;;;;14.35;5.78;;;;;;;33.10;20.98;100464.63;1773288;79;21134;-76
2021/09/10 10:38:08;;;;;;;;;;;;;;;33.32;20.33;100462.72;1776457;80;21051;-75
2021/09/10 10:40:42;;;;;;;12.43;6.28;;;;;;;33.33;20.70;100461.67;1773485;80;20215;-76
2021/09/10 10:43:24;;;;;;;13.18;6.00;;;;;;;33.39;21.23;100458.16;1776089;80;20968;-77
2021/09/10 10:46:02;;;;;;;11.50;5.65;;;;;;;33.41;20.67;100461.53;1775883;80;21011;-76
2021/09/10 10:48:43;;;;;;;11.35;6.25;;;;;;;33.58;20.74;100451.17;1772383;80;21101;-77
2021/09/10 10:51:22;;;;;;;11.70;6.28;;;;;;;33.71;20.45;100450.44;1773510;80;21106;-77
2021/09/10 10:53:58;;;;;;;11.97;6.33;;;;;;;33.80;20.40;100451.96;1773991;80;21303;-77
2021/09/10 10:56:34;;;;;;;13.48;6.00;;;;;;;33.76;20.41;100443.31;1799644;79;21024;-77
2021/09/10 10:59:21;;;;;;;12.58;6.42;;;;;;;33.69;20.69;100444.33;1805579;79;21083;-76
2021/09/10 11:02:20;;;;;;;13.83;6.75;;;;;;;33.82;20.46;100441.65;1805514;79;21140;-77
2021/09/10 11:05:07;;;;;;;11.80;6.28;;;;;;;33.54;20.06;100432.94;1802850;78;21029;-77
2021/09/10 11:07:35;;;;;;;9.93;6.17;;;;;;;33.41;20.78;100431.51;1793214;79;21507;-76
2021/09/10 11:10:16;;;;;;;15.30;6.60;;;;;;;33.61;20.40;100432.52;1794050;80;21176;-76
2021/09/10 11:12:49;;;;;;;13.43;6.50;;;;;;;33.73;20.23;100437.39;1767849;80;21540;-77
2021/09/10 11:15:25;;;;;;;12.68;6.78;;;;;;;33.64;20.35;100432.11;1766858;80;21513;-77
2021/09/10 11:17:58;;;;;;;16.25;7.40;;;;;;;33.66;20.95;100429.19;1793395;80;21614;-77
2021/09/10 11:20:40;;;;;;;10.90;6.85;;;;;;;33.79;20.91;100424.31;1789095;80;21027;-78
2021/09/10 11:23:10;;;;;;;15.78;6.97;;;;;;;33.54;21.03;100424.75;1793805;79;21080;-77